Timeline UpdatesTrip UpdatesNews PostsPvt PostsTravel TipsAdmin PostsConv PostsFollowed PostsChat RequestsBlog PostsPNR Posts

Disclaimer
Search
 
 
Thu Jul 24, 2014 18:30:59 ISTHomeTrainsΣChainsAtlasPNRForumGalleryNewsFAQTripsMembersLoginFeedback
No Recent News for this Train
Other Trains in the News **new
Latest...
..
Sat Jul 12, 2014 (08:05AM)
⇐ Return Journey: Train# 13133

13134/Varanasi - Sealdah (Upper India) Express

Feb 08 2014 (8:51AM)
Change Departure Station:
Change Arrival Station:
Post a Train Travel TipPost a Train Travel Tip **new
Post a Comment/Question/Picture/VideoPost a Comment/Question/Picture/Video
Pantry/Catering
✕ NO Pantry Car
✕ NO Catering
RSA - Rake Sharing
13119/13120 Sealdah - Old Delhi Express
Rake/Coach Composition
LOCO-SLR-GS-GS-S4-S3-S2-S1-B1-GS-GS-GS-GS-GS-GS-SLR
Loco
BWN WDM-3A
News    PNR    Forum    Time-Table    Availability    Fare Chart    Map    Arr/Dep History    Trips    Gallery    ΣChains    X/O    Timeline    
Travel Time: 8h 2m    28 halts    Distance: 252 km    Avg Speed: 31 km/hr
Type: Mail/Express
Zone: ER/Eastern
Departs @ 08:40
Platform# 4
 MT TFS
Varanasi Junction/BSB 
Arrives @ 16:42
Platform# ???
 MT TFS
Hardas Bigha/HDE 

28 halts. 58 intermediate Stations between Varanasi Junction and Hardas Bigha

Show ALL intermediate Stations  Show Old Time-Table

#CodeStation NameX/OArrivesAvgDepartsAvgHaltPFDay#KmSpeedElevZoneAddress
1BSB»Varanasi Junction (9)»  -08:40-410.01882mNRVaranasi 221002, Uttar Pradesh
2MGSMughal Sarai Junction (8)X  09:35-09:50-15m--116.44283mECRMughalsarai 232101, Uttar Pradesh
3SLDSakaldiha (2)  10:16-10:18-2m--134.68781mECRState Highway 69, Uttar Pradesh
4ZNAZamania (2)X  10:36-10:38-2m--160.75877mECRGhazipur, Uttar Pradesh
5DLNDildarnagar Junction (2)  10:52-10:57-5m--174.13672mECRDildarnagar, Uttar Pradesh
6BWHBhadaura (2)  11:10-11:12-2m--182.04969mECRGhazipur, Uttar Pradesh
7GMRGahmar (2)  11:22-11:24-2m--190.26968mECRDistt: Ghazipur, Uttar Pradesh
8CSAChausa (2)  11:32-11:34-2m--199.44468mECRState Highway 14, Bihar
9BXRBuxar (3)X  11:49-11:53-4m11110.310967mECRBuxar, Bihar
10DUREDumraon (3)  12:02-12:04-2m--1126.74670mECRDumraon, Bihar
11TWGTwining GanjX12:14-12:16-2m--1134.3-70mECRArrah Buxar Rd, Bihar
12RPRRaghunathpur (4)  12:18-12:20-2m--1142.66669mECRRaghunathpur, Bihar
13BYNBanahi (2)X  12:28-12:30-2m--1151.55167mECRBanahi, Bihar
14BEABihiya (3)X  12:37-12:39-2m--1157.47767mECRBehea, Bihar
15KRSKarisath (2)X  12:48-12:50-2m--1168.96065mECRKarisath, Bihar
16ARAAra Junction (3)  13:00-13:05-5m--1178.87463mECRarrah( 06182-233411), Bihar
17KUAKulharia (2)  13:13-13:14-1m--1188.74361mECRChandi Sahar Rd, Bihar
18KWRKoelwar (2)X  13:19-13:21-2m--1192.31865mECRNational Highway 30, Bihar
19VHCHChakki Block Cabin  13:29-13:31-2m--1194.85463mECRNational Highway 30, Bihar
20BTABihta (2)X  13:38-13:40-2m--1201.04262mECRDistt: Patna, Bihar
21SDESadisopur (2)X  13:46-13:48-2m--1205.36164mECRSadisopur, Bihar
22NEONeora (2)XO  13:55-13:57-2m--1212.3761mECRNational Highway 98, Bihar
23DNRDanapur (5)XO  14:50-15:00-10m--1218.45158mECRKhagaul, Bihar
24PWSPhulwari Sharif (3)X  15:04-15:06-2m--1221.8958mECRPatna, Bihar
25PNBEPatna Junction (10)  15:45-15:55-10m11227.82257mECRPatna 800001, Bihar
26RJPBRajendra Nagar Bihar (4)X  16:02-16:04-2m--1230.45155mECRPatna 800001, Bihar
27GZHGulzarbagh (3)X  16:09-16:11-2m--1234.62055mECRPatna, Bihar
28PNCPatna Saheb (3)  16:20-16:22-2m--1237.75659mECRPatna, Bihar
29FUTFatwa (6)  16:35-16:37-2m--1249.92853mECRPatna, Bihar
30HDE•Hardas Bigha•X  16:42-16:44-2m--1252.27453mECRFatwah, Bihar
31KOOKhusropur (2)O  16:49-16:51-2m--1258.32052mECRPatna, Bihar
32KWOKarauta (2)X  17:16-17:18-2m--1266.63254mECRKarauta, Bihar
33BKPBakhtiyarpur Junction (5)X  17:30-17:32-2m--1272.99151mECRPatna, Bihar
34ATLAthmal Gola (2)  17:38-17:40-2m--1282.06952mECRPatna, Bihar
35BARHBarh (3)  17:48-17:50-2m--1291.16249mECRBarh, Bihar
36PHKPunarakhXO  18:00-18:02-2m--1301.51051mECRPunarakh, Bihar
37MORMorX  18:51-18:53-2m--1309.83646mECRMor, Bihar
38MKAMokama Junction (3)  19:05-19:10-5m--1317.06348mECRPatna, Bihar
39HTZHathidah Junction (2)X  19:18-19:20-2m11325.44350mECRMusahari, Bihar
40BRYABarhiya (3)X  19:33-19:35-2m--1334.87047mECRBarahiya, Bihar
41LKRLuckeesarai Junction (2)XO  19:48-19:50-2m--1349.9152mECRLakhisarai, Bihar
42KIULKiul Junction (5)  20:45-20:55-10m51351.25953mECRDist. Lakhisarai, Bihar
43KJHKajra (2)  21:11-21:13-2m--1367.04950mERLakhisarai District, Bihar
44AHAAbhaipur  21:22-21:24-2m--1374.25552mERAbhaipur, Bihar
45DRHDharhara (2)  21:35-21:37-2m--1384.34755mERDharhara, Bihar
46DRTPDasharathpur21:44-21:46-2m--1389.72748mERDharhara, Bihar
47JMPJamalpur Junction (4)  22:00-22:10-10m--1396.14759mERJamalpur 06344-243101, Bihar
48RPURRatanpur  22:18-22:20-2m--1402.44246mERRatanpur Railway Station, Bihar
49BUPBariarpur (3)  22:27-22:29-2m--1407.25442mERMunger, Bihar
50SGGSultanGanj  22:49-22:51-2m--1425.14642mERSultanganj, Bihar
51AKNAkbarnagar  23:04-23:06-2m--1435.24539mERTilakpur, Bihar
52MPYMurarpur  23:13-23:15-2m--1440.54238mERMau, Bihar
53NATNathnagar  23:22-23:24-2m--1445.41848mERBhagalpur, Bihar
54BGPBhagalpur Junction (6)X  23:40-23:55-15m21450.15749mERBhagalpur, Bihar
55SBOSabaur (3)X  00:03-00:05-2m--2457.65042mERSabour, Bihar
56GGAGhoga (2)  00:20-00:22-2m--2470.14942mERGhoga, Bihar
57EKCEkchari (1)  00:29-00:31-2m12475.82037mERNational Highway 80, Bihar
58CLGKahalgaon (2)X  00:44-00:46-2m12480.23244mERBhagalpur, Bihar
59BKSLBikram Shila (2)  01:01-01:03-2m--2488.22358mERBikram Shila, Bihar
60SVRPShivanarayanpur (2)  01:12-01:14-2m--2491.64847mERShivanarayanpur, Bihar
61PPTPirpainti (2)  01:25-01:27-2m--2500.55653mERBhagalpur, Bihar
62MZCMirza Cheuki (3)  01:36-01:38-2m32509.03638mERBihar, Bihar
63SBGSahibganj Junction (3)  02:03-02:13-10m12524.15638mERSahibganj, Jharkhand
64MJPMaharajpur (2)X  02:28-02:34-6m--2538.08534mERMoharajpur, Jharkhand
65TLJTaljhari  02:44-02:46-2m--2552.23638mERTaljhari, Jharkhand
66KXEKalian ChakX  02:54-03:00-6m--2557.09745mERKalian Chak, Jharkhand
67TPHTinpahar Junction (3)  03:03-03:05-2m22561.82945mERBamangawan, Jharkhand
68BHWBarharwa Junction (3)  03:40-03:45-5m22578.56536mERBarharwa, Jharkhand
69KLPKotalpukur (3)X  03:58-04:00-2m12592.66540mERKotalpukur, Jharkhand
70PKRPakur (2)  04:11-04:13-2m22604.64237mERDist:- Pakur, Jharkhand
71RJGRajgram (3)  04:28-04:30-2m22615.15032mERRajgram, West Bengal
72BSBRBanshlai Bridge (2)  04:38-04:40-2m--2621.84335mERState Highway 5, West Bengal
73MRRMurarai (3)  04:47-04:49-2m22626.85736mERMurarai, West Bengal
74CTRChatra (3)X  04:57-04:59-2m22634.44742mERChatra, West Bengal
75NHTNalhati Junction (4)  05:10-05:12-2m22643.02348mERNalhati, West Bengal
76RPHRampurhat (3)X  05:48-06:03-15m12657.16841mERDIST - Birbhum, West Bengal
77MLVMallarpur (3)  06:14-06:16-2m--2669.54946mERDist - Birbhum, West Bengal
78SNTSainthia Junction (4)X  06:35-06:37-2m42685.18058mERDist - Birbhum, West Bengal
79AMPAhmadpur Junction (3)  06:47-06:49-2m22698.46546mERDist - Birbhum, West Bengal
80PNEPrantik (3)  07:03-07:05-2m22713.63248mERPrantik, West Bengal
81BHPBolpur Shantiniketan (3)  07:13-07:18-5m22717.87159mERBolpur, West Bengal
82GKHGuskara (2)X  07:34-07:36-2m12736.83541mERDist - Bardhaman, West Bengal
83BWNBarddhaman Junction (8)XO  08:32-08:56-24m--2769.67034mERDist - Barddhaman, West Bengal
84DAKEDakhineswar (2)  10:12-10:14-2m22858.32310mERDist - 24 paraganas ( North ), West Bengal
85BNXRBidhan Nagar Road (4)  10:38-10:40-2m42867.6138mERKolkata, West Bengal
86SDAHKolkata Sealdah (20)10:55--92871.0-8mERPh : 033-23503535 (For North: APC Roy Road) Kolkata 700014, West Bengal
Scroll to Top
Scroll to Bottom